createdAt,value
2023-04-11T00:00:14.468Z,7.14
2023-04-11T00:02:41.875Z,7.16
2023-04-11T00:05:09.601Z,7.14
2023-04-11T00:07:37.032Z,7.15
2023-04-11T00:10:04.999Z,7.15
2023-04-11T00:12:32.299Z,7.17
2023-04-11T00:14:59.474Z,7.22
2023-04-11T00:17:26.664Z,7.23
2023-04-11T00:19:53.797Z,7.22
2023-04-11T00:22:21.289Z,7.23
2023-04-11T00:24:48.393Z,7.20
2023-04-11T00:27:15.608Z,7.21
2023-04-11T00:29:42.797Z,7.19
2023-04-11T00:32:10.228Z,7.18
2023-04-11T00:34:37.401Z,7.15
2023-04-11T00:37:04.519Z,7.09
2023-04-11T00:39:31.727Z,7.06
2023-04-11T00:42:08.733Z,7.01
2023-04-11T00:44:36.650Z,7.00
2023-04-11T00:47:10.216Z,7.02
2023-04-11T00:49:38.636Z,7.00
2023-04-11T00:52:06.943Z,7.00
2023-04-11T00:54:34.491Z,7.00
2023-04-11T00:57:04.753Z,7.00
2023-04-11T00:59:33.651Z,7.09
2023-04-11T01:02:01.504Z,7.11
2023-04-11T01:04:29.147Z,7.09
2023-04-11T01:07:04.411Z,7.10
2023-04-11T01:09:34.723Z,7.06
2023-04-11T01:12:05.111Z,7.07
2023-04-11T01:14:32.398Z,7.09
2023-04-11T01:17:01.564Z,7.06
2023-04-11T01:19:29.713Z,7.03
2023-04-11T01:21:59.559Z,7.10
2023-04-11T01:24:27.591Z,7.08
2023-04-11T01:26:55.159Z,7.04
2023-04-11T01:29:22.448Z,6.93
2023-04-11T01:31:51.590Z,6.97
2023-04-11T01:34:20.938Z,6.93
2023-04-11T01:36:48.573Z,6.96
2023-04-11T01:39:16.078Z,6.93
2023-04-11T01:41:44.806Z,6.96
2023-04-11T01:44:12.629Z,6.96
2023-04-11T01:46:39.984Z,6.95
2023-04-11T01:49:07.302Z,6.95
2023-04-11T01:51:34.917Z,6.93
2023-04-11T01:54:02.133Z,6.96
2023-04-11T01:56:29.485Z,6.96
2023-04-11T01:58:56.932Z,6.95
2023-04-11T02:01:24.259Z,6.94
2023-04-11T02:03:51.557Z,6.98
2023-04-11T02:06:18.967Z,6.97
2023-04-11T02:08:46.228Z,6.93
2023-04-11T02:11:13.401Z,6.92
2023-04-11T02:13:40.530Z,6.94
2023-04-11T02:16:13.176Z,6.93
2023-04-11T02:18:41.987Z,6.91
2023-04-11T02:21:09.260Z,6.88
2023-04-11T02:23:36.904Z,6.87
2023-04-11T02:26:04.532Z,6.85
2023-04-11T02:28:31.620Z,6.81
2023-04-11T02:30:58.871Z,6.78
2023-04-11T02:33:26.168Z,6.74
2023-04-11T02:35:53.620Z,6.72
2023-04-11T02:38:20.963Z,6.73
2023-04-11T02:40:48.556Z,6.70
2023-04-11T02:43:15.759Z,6.69
2023-04-11T02:45:43.535Z,6.72
2023-04-11T02:48:10.769Z,6.67
2023-04-11T02:50:38.212Z,6.66
2023-04-11T02:53:05.353Z,6.65
2023-04-11T02:55:32.499Z,6.66
2023-04-11T02:58:00.037Z,6.68
2023-04-11T03:00:27.199Z,6.65
2023-04-11T03:02:54.403Z,6.65
2023-04-11T03:05:21.634Z,6.67
2023-04-11T03:07:48.772Z,6.71
2023-04-11T03:10:16.262Z,6.75
2023-04-11T03:12:43.597Z,6.74
2023-04-11T03:15:11.146Z,6.75
2023-04-11T03:17:38.368Z,6.79
2023-04-11T03:20:06.671Z,6.71
2023-04-11T03:22:33.830Z,6.58
2023-04-11T03:25:01.216Z,6.61
2023-04-11T03:27:28.651Z,6.61
2023-04-11T03:29:56.233Z,6.63
2023-04-11T03:32:23.900Z,6.62
2023-04-11T03:34:51.479Z,6.57
2023-04-11T03:37:18.587Z,6.59
2023-04-11T03:39:45.967Z,6.59
2023-04-11T03:42:13.191Z,6.55
2023-04-11T03:44:40.489Z,6.54
2023-04-11T03:47:07.749Z,6.49
2023-04-11T03:49:34.914Z,6.46
2023-04-11T03:52:02.181Z,6.47
2023-04-11T03:54:29.302Z,6.40
2023-04-11T03:56:56.435Z,6.38
2023-04-11T03:59:23.618Z,6.40
2023-04-11T04:01:50.802Z,6.44
2023-04-11T04:04:17.969Z,6.49
2023-04-11T04:06:45.187Z,6.48
2023-04-11T04:09:12.442Z,6.48
2023-04-11T04:11:39.680Z,6.50
2023-04-11T04:14:06.766Z,6.47
2023-04-11T04:16:33.922Z,6.53
2023-04-11T04:19:01.594Z,6.54
2023-04-11T04:21:30.243Z,6.61
2023-04-11T04:23:57.812Z,6.65
2023-04-11T04:26:25.362Z,6.64
2023-04-11T04:28:52.511Z,6.63
2023-04-11T04:31:19.714Z,6.63
2023-04-11T04:33:47.689Z,6.58
2023-04-11T04:36:14.961Z,6.60
2023-04-11T04:38:42.169Z,6.54
2023-04-11T04:41:09.513Z,6.48
2023-04-11T04:43:36.685Z,6.49
2023-04-11T04:46:04.050Z,6.47
2023-04-11T04:48:31.218Z,6.48
2023-04-11T04:50:58.525Z,6.45
2023-04-11T04:53:25.673Z,6.47
2023-04-11T04:55:52.892Z,6.50
2023-04-11T04:58:20.043Z,6.55
2023-04-11T05:00:47.231Z,6.56
2023-04-11T05:03:14.501Z,6.58
2023-04-11T05:05:41.757Z,6.59
2023-04-11T05:08:08.998Z,6.59
2023-04-11T05:10:36.416Z,6.58
2023-04-11T05:13:03.643Z,6.62
2023-04-11T05:15:30.819Z,6.62
2023-04-11T05:17:58.019Z,6.64
2023-04-11T05:20:25.215Z,6.63
2023-04-11T05:22:53.003Z,6.66
2023-04-11T05:25:20.312Z,6.61
2023-04-11T05:27:47.443Z,6.64
2023-04-11T05:30:14.909Z,6.68
2023-04-11T05:32:42.351Z,6.67
2023-04-11T05:35:10.078Z,6.74
2023-04-11T05:37:37.264Z,6.73
2023-04-11T05:40:05.084Z,6.77
2023-04-11T05:42:32.238Z,6.83
2023-04-11T05:44:59.364Z,6.86
2023-04-11T05:47:26.640Z,6.91
2023-04-11T05:49:53.784Z,6.88
2023-04-11T05:52:20.896Z,6.90
2023-04-11T05:54:48.072Z,6.98
2023-04-11T05:57:15.287Z,7.03
2023-04-11T05:59:42.364Z,7.10
2023-04-11T06:02:09.750Z,7.16
2023-04-11T06:04:37.109Z,7.20
2023-04-11T06:07:04.682Z,7.24
2023-04-11T06:09:33.911Z,7.28
2023-04-11T06:12:01.496Z,7.33
2023-04-11T06:14:28.733Z,7.37
2023-04-11T06:16:55.930Z,7.45
2023-04-11T06:19:23.099Z,7.52
2023-04-11T06:21:50.244Z,7.58
2023-04-11T06:24:17.679Z,7.63
2023-04-11T06:26:45.120Z,7.57
2023-04-11T06:29:12.316Z,7.67
2023-04-11T06:31:40.514Z,7.74
2023-04-11T06:34:07.738Z,7.82
2023-04-11T06:36:34.857Z,7.87
2023-04-11T06:39:01.972Z,7.93
2023-04-11T06:41:29.801Z,7.99
2023-04-11T06:43:57.338Z,8.06
2023-04-11T06:46:24.877Z,8.15
2023-04-11T06:48:52.078Z,8.21
2023-04-11T06:51:19.305Z,8.29
2023-04-11T06:53:46.387Z,8.27
2023-04-11T06:56:13.499Z,8.32
2023-04-11T06:58:40.646Z,8.42
2023-04-11T07:01:07.920Z,8.45
2023-04-11T07:03:35.550Z,8.47
2023-04-11T07:06:02.913Z,8.55
2023-04-11T07:08:31.843Z,8.63
2023-04-11T07:10:59.907Z,8.66
2023-04-11T07:13:27.037Z,8.75
2023-04-11T07:15:54.341Z,8.82
2023-04-11T07:18:22.682Z,8.90
2023-04-11T07:20:49.833Z,8.97
2023-04-11T07:23:17.133Z,9.07
2023-04-11T07:25:44.554Z,9.15
2023-04-11T07:28:12.286Z,9.23
2023-04-11T07:30:39.493Z,9.28
2023-04-11T07:33:06.788Z,9.31
2023-04-11T07:35:34.920Z,9.37
2023-04-11T07:38:02.240Z,9.38
2023-04-11T07:40:30.485Z,9.44
2023-04-11T07:43:00.904Z,9.46
2023-04-11T07:45:39.186Z,9.51
2023-04-11T07:48:11.350Z,9.49
2023-04-11T07:50:46.820Z,9.52
2023-04-11T07:53:14.233Z,9.55
2023-04-11T07:55:41.600Z,9.59
2023-04-11T07:58:09.165Z,9.64
2023-04-11T08:00:36.357Z,9.67
2023-04-11T08:03:09.102Z,9.70
2023-04-11T08:05:37.632Z,9.76
2023-04-11T08:08:06.453Z,9.84
2023-04-11T08:10:34.349Z,9.86
2023-04-11T08:13:01.827Z,9.85
2023-04-11T08:15:29.063Z,9.94
2023-04-11T08:17:57.096Z,10.01
2023-04-11T08:20:24.887Z,10.05
2023-04-11T08:22:52.056Z,10.06
2023-04-11T08:25:19.735Z,10.06
2023-04-11T08:27:46.872Z,10.11
2023-04-11T08:30:15.087Z,10.18
2023-04-11T08:32:42.367Z,10.18
2023-04-11T08:35:10.257Z,10.23
2023-04-11T08:37:37.433Z,10.30
2023-04-11T08:40:05.233Z,10.32
2023-04-11T08:42:32.857Z,10.34
2023-04-11T08:45:04.318Z,10.36
2023-04-11T08:47:31.878Z,10.37
2023-04-11T08:49:59.078Z,10.38
2023-04-11T08:52:26.495Z,10.49
2023-04-11T08:54:55.141Z,10.50
2023-04-11T08:57:30.743Z,10.54
2023-04-11T09:00:00.848Z,10.66
2023-04-11T09:02:28.212Z,10.67
2023-04-11T09:04:55.530Z,10.73
2023-04-11T09:07:22.763Z,10.84
2023-04-11T09:09:50.110Z,10.89
2023-04-11T09:12:29.721Z,10.84
2023-04-11T09:14:57.008Z,10.91
2023-04-11T09:17:24.333Z,11.02
2023-04-11T09:19:51.518Z,11.06
2023-04-11T09:22:18.588Z,11.12
2023-04-11T09:25:03.082Z,11.23
2023-04-11T09:27:30.249Z,11.27
2023-04-11T09:29:57.387Z,11.39
2023-04-11T09:32:31.193Z,11.47
2023-04-11T09:35:18.230Z,11.51
2023-04-11T09:37:50.917Z,11.46
2023-04-11T09:40:22.250Z,11.56
2023-04-11T09:42:59.920Z,11.61
2023-04-11T09:45:32.092Z,11.67
2023-04-11T09:48:01.401Z,11.71
2023-04-11T09:50:28.938Z,11.77
2023-04-11T09:52:58.490Z,11.74
2023-04-11T09:55:26.623Z,11.79
2023-04-11T09:57:55.012Z,11.99
2023-04-11T10:00:25.787Z,12.07
2023-04-11T10:02:53.904Z,12.05
2023-04-11T10:05:27.018Z,12.06
2023-04-11T10:08:14.225Z,12.12
2023-04-11T10:10:44.084Z,12.16
2023-04-11T10:13:43.219Z,12.25
2023-04-11T10:16:19.181Z,12.34
2023-04-11T10:18:55.225Z,12.43
2023-04-11T10:21:30.934Z,12.38
2023-04-11T10:24:16.986Z,12.49
2023-04-11T10:27:36.706Z,12.60
2023-04-11T10:30:04.249Z,12.69
2023-04-11T10:32:31.439Z,12.78
2023-04-11T10:34:58.527Z,12.88
2023-04-11T10:37:36.746Z,12.85
2023-04-11T10:40:09.039Z,12.92
2023-04-11T10:42:44.898Z,12.95
2023-04-11T10:45:22.172Z,13.10
2023-04-11T10:48:01.309Z,13.20
2023-04-11T10:50:32.900Z,13.43
2023-04-11T10:53:02.672Z,13.62
2023-04-11T10:55:41.415Z,13.74
2023-04-11T10:58:12.042Z,14.11
2023-04-11T11:00:48.653Z,14.75
2023-04-11T11:03:28.097Z,15.09
2023-04-11T11:06:06.369Z,15.16
2023-04-11T11:08:39.415Z,15.73
2023-04-11T11:11:11.507Z,16.03
2023-04-11T11:13:53.957Z,16.12
2023-04-11T11:16:25.243Z,16.31
2023-04-11T11:18:57.470Z,16.59
2023-04-11T11:21:28.166Z,17.21
2023-04-11T11:24:03.629Z,17.71
2023-04-11T11:26:41.925Z,17.86
2023-04-11T11:29:11.235Z,17.85
2023-04-11T11:31:43.621Z,18.04
2023-04-11T11:34:22.793Z,18.57
2023-04-11T11:36:51.610Z,18.80
2023-04-11T11:39:21.073Z,19.03
2023-04-11T11:41:50.502Z,19.13
2023-04-11T11:44:27.053Z,19.00
2023-04-11T11:47:14.502Z,18.83
2023-04-11T11:49:52.265Z,18.94
2023-04-11T11:52:38.123Z,19.11
2023-04-11T11:55:10.500Z,19.17
2023-04-11T11:57:44.628Z,19.04
2023-04-11T12:00:12.896Z,19.01
2023-04-11T12:02:40.958Z,18.81
2023-04-11T12:05:12.265Z,18.27
2023-04-11T12:07:40.043Z,18.36
2023-04-11T12:10:13.488Z,18.15
2023-04-11T12:12:53.729Z,18.13
2023-04-11T12:15:23.486Z,17.90
2023-04-11T12:17:53.514Z,17.77
2023-04-11T12:20:26.020Z,17.72
2023-04-11T12:22:55.324Z,17.72
2023-04-11T12:25:23.330Z,17.72
2023-04-11T12:27:50.620Z,17.77
2023-04-11T12:30:18.198Z,17.63
2023-04-11T12:32:46.035Z,17.58
2023-04-11T12:35:13.569Z,17.51
2023-04-11T12:37:40.849Z,17.25
2023-04-11T12:40:08.762Z,16.88
2023-04-11T12:42:39.163Z,16.69
2023-04-11T12:45:14.198Z,16.61
2023-04-11T12:47:41.747Z,16.56
2023-04-11T12:50:10.798Z,16.49
2023-04-11T12:52:38.332Z,16.46
2023-04-11T12:55:06.417Z,16.37
2023-04-11T12:57:33.587Z,16.43
2023-04-11T13:00:00.912Z,16.31
2023-04-11T13:02:31.261Z,16.22
2023-04-11T13:05:03.053Z,16.11
2023-04-11T13:07:30.366Z,16.07
2023-04-11T13:09:57.536Z,16.10
2023-04-11T13:12:24.888Z,16.21
2023-04-11T13:14:52.032Z,16.28
2023-04-11T13:17:19.146Z,16.41
2023-04-11T13:19:46.321Z,16.61
2023-04-11T13:22:13.700Z,16.71
2023-04-11T13:24:40.832Z,16.71
2023-04-11T13:27:07.969Z,16.63
2023-04-11T13:29:35.178Z,16.65
2023-04-11T13:32:02.910Z,16.70
2023-04-11T13:34:30.127Z,16.71
2023-04-11T13:36:57.359Z,16.90
2023-04-11T13:39:24.540Z,17.21
2023-04-11T13:41:51.885Z,17.47
2023-04-11T13:44:19.095Z,17.47
2023-04-11T13:46:46.263Z,17.38
2023-04-11T13:49:13.419Z,17.27
2023-04-11T13:51:40.769Z,17.08
2023-04-11T13:54:08.147Z,16.91
2023-04-11T13:56:35.897Z,16.79
2023-04-11T13:59:03.633Z,16.70
2023-04-11T14:01:30.855Z,16.66
2023-04-11T14:03:58.263Z,16.54
2023-04-11T14:06:25.548Z,16.52
2023-04-11T14:08:52.760Z,16.55
2023-04-11T14:11:20.110Z,16.38
2023-04-11T14:13:47.439Z,16.37
2023-04-11T14:16:14.836Z,16.25
2023-04-11T14:18:42.394Z,16.11
2023-04-11T14:21:09.838Z,15.98
2023-04-11T14:23:37.194Z,15.99
2023-04-11T14:26:05.248Z,16.11
2023-04-11T14:28:32.468Z,16.37
2023-04-11T14:30:59.766Z,16.49
2023-04-11T14:33:27.012Z,16.67
2023-04-11T14:35:54.267Z,16.81
2023-04-11T14:38:21.469Z,16.90
2023-04-11T14:40:48.622Z,16.83
2023-04-11T14:43:15.791Z,16.61
2023-04-11T14:45:42.902Z,16.68
2023-04-11T14:48:10.137Z,16.53
2023-04-11T14:50:37.369Z,16.30
2023-04-11T14:53:04.704Z,16.07
2023-04-11T14:55:32.035Z,16.09
2023-04-11T14:57:59.630Z,15.91
2023-04-11T15:00:27.335Z,15.86
2023-04-11T15:02:56.953Z,15.79
2023-04-11T15:05:24.632Z,15.80
2023-04-11T15:07:53.558Z,15.81
2023-04-11T15:10:24.890Z,15.67
2023-04-11T15:12:53.464Z,15.55
2023-04-11T15:15:20.682Z,15.50
2023-04-11T15:18:09.686Z,15.37
2023-04-11T15:20:36.999Z,15.24
2023-04-11T15:23:04.179Z,15.21
2023-04-11T15:25:31.312Z,15.26
2023-04-11T15:27:58.471Z,15.23
2023-04-11T15:30:25.771Z,15.26
2023-04-11T15:32:53.029Z,15.19
2023-04-11T15:35:20.296Z,15.21
2023-04-11T15:37:47.426Z,15.34
2023-04-11T15:40:14.695Z,15.22
2023-04-11T15:42:42.002Z,15.24
2023-04-11T15:45:09.676Z,15.11
2023-04-11T15:47:36.902Z,15.11
2023-04-11T15:50:04.421Z,15.19
2023-04-11T15:52:31.663Z,15.32
2023-04-11T15:54:58.766Z,15.28
2023-04-11T15:57:26.474Z,15.40
2023-04-11T15:59:53.630Z,15.43
2023-04-11T16:02:20.842Z,15.35
2023-04-11T16:04:49.191Z,15.36
2023-04-11T16:07:17.156Z,15.30
2023-04-11T16:09:44.789Z,15.28
2023-04-11T16:12:12.071Z,15.16
2023-04-11T16:14:39.283Z,15.05
2023-04-11T16:17:06.530Z,15.08
2023-04-11T16:19:34.034Z,15.06
2023-04-11T16:22:01.505Z,15.10
2023-04-11T16:24:29.830Z,15.15
2023-04-11T16:26:56.960Z,15.18
2023-04-11T16:29:24.303Z,14.99
2023-04-11T16:31:51.719Z,14.90
2023-04-11T16:34:19.132Z,14.77
2023-04-11T16:36:46.411Z,14.71
2023-04-11T16:39:13.786Z,14.54
2023-04-11T16:41:41.012Z,14.61
2023-04-11T16:44:08.944Z,14.65
2023-04-11T16:46:43.003Z,14.60
2023-04-11T16:49:11.251Z,14.62
2023-04-11T16:51:38.598Z,14.73
2023-04-11T16:54:06.361Z,14.76
2023-04-11T16:56:33.933Z,14.74
2023-04-11T16:59:01.470Z,14.66
2023-04-11T17:01:28.700Z,14.66
2023-04-11T17:03:56.254Z,14.49
2023-04-11T17:06:24.392Z,14.47
2023-04-11T17:08:52.060Z,14.37
2023-04-11T17:11:27.721Z,14.24
2023-04-11T17:13:55.452Z,14.10
2023-04-11T17:16:23.260Z,14.02
2023-04-11T17:18:50.734Z,13.91
2023-04-11T17:21:18.045Z,13.88
2023-04-11T17:23:47.141Z,13.83
2023-04-11T17:26:20.250Z,13.87
2023-04-11T17:28:47.877Z,13.73
2023-04-11T17:31:17.645Z,13.65
2023-04-11T17:33:53.276Z,13.55
2023-04-11T17:36:20.668Z,13.47
2023-04-11T17:38:48.808Z,13.43
2023-04-11T17:41:16.264Z,13.36
2023-04-11T17:43:44.187Z,13.27
2023-04-11T17:46:11.425Z,13.15
2023-04-11T17:48:38.641Z,13.20
2023-04-11T17:51:06.508Z,13.20
2023-04-11T17:53:34.133Z,13.18
2023-04-11T17:56:05.429Z,13.13
2023-04-11T17:58:32.549Z,13.12
2023-04-11T18:01:00.168Z,13.08
2023-04-11T18:03:27.548Z,13.07
2023-04-11T18:05:55.025Z,13.07
2023-04-11T18:08:32.186Z,12.94
2023-04-11T18:11:04.145Z,12.96
2023-04-11T18:13:31.677Z,12.93
2023-04-11T18:15:59.075Z,12.83
2023-04-11T18:18:28.130Z,12.83
2023-04-11T18:21:03.545Z,12.76
2023-04-11T18:23:32.582Z,12.73
2023-04-11T18:26:00.158Z,12.57
2023-04-11T18:28:27.764Z,12.60
2023-04-11T18:30:55.228Z,12.51
2023-04-11T18:33:22.542Z,12.45
2023-04-11T18:35:51.547Z,12.34
2023-04-11T18:38:19.084Z,12.30
2023-04-11T18:40:46.512Z,12.23
2023-04-11T18:43:14.553Z,12.20
2023-04-11T18:45:43.304Z,12.14
2023-04-11T18:48:11.493Z,12.05
2023-04-11T18:50:39.187Z,12.01
2023-04-11T18:53:10.333Z,11.89
2023-04-11T18:55:40.624Z,11.94
2023-04-11T18:58:10.115Z,11.90
2023-04-11T19:00:39.684Z,11.86
2023-04-11T19:03:07.655Z,11.80
2023-04-11T19:05:36.164Z,11.73
2023-04-11T19:08:03.792Z,11.67
2023-04-11T19:10:31.937Z,11.65
2023-04-11T19:12:59.364Z,11.49
2023-04-11T19:15:26.835Z,11.53
2023-04-11T19:17:54.809Z,11.46
2023-04-11T19:20:22.047Z,11.37
2023-04-11T19:22:49.472Z,11.40
2023-04-11T19:25:16.630Z,11.32
2023-04-11T19:27:43.796Z,11.23
2023-04-11T19:30:12.262Z,11.05
2023-04-11T19:32:40.221Z,11.09
2023-04-11T19:35:09.584Z,11.07
2023-04-11T19:37:38.032Z,10.94
2023-04-11T19:40:07.655Z,10.94
2023-04-11T19:42:35.389Z,10.88
2023-04-11T19:45:03.951Z,10.79
2023-04-11T19:47:31.211Z,10.70
2023-04-11T19:49:58.806Z,10.74
2023-04-11T19:52:26.956Z,10.68
2023-04-11T19:54:55.652Z,10.59
2023-04-11T19:57:26.519Z,10.50
2023-04-11T19:59:53.917Z,10.47
2023-04-11T20:02:21.239Z,10.43
2023-04-11T20:04:48.871Z,10.34
2023-04-11T20:07:16.641Z,10.22
2023-04-11T20:09:44.446Z,10.20
2023-04-11T20:12:12.409Z,10.12
2023-04-11T20:14:40.034Z,10.11
2023-04-11T20:17:07.656Z,10.03
2023-04-11T20:19:35.906Z,10.01
2023-04-11T20:22:04.472Z,9.99
2023-04-11T20:24:31.906Z,9.93
2023-04-11T20:26:59.735Z,9.90
2023-04-11T20:29:28.280Z,9.82
2023-04-11T20:31:57.972Z,9.84
2023-04-11T20:34:25.527Z,9.79
2023-04-11T20:36:53.075Z,9.75
2023-04-11T20:39:20.526Z,9.72
2023-04-11T20:41:48.375Z,9.66
2023-04-11T20:44:16.394Z,9.62
2023-04-11T20:46:43.806Z,9.57
2023-04-11T20:49:11.403Z,9.51
2023-04-11T20:51:38.796Z,9.44
2023-04-11T20:54:06.462Z,9.33
2023-04-11T20:56:33.661Z,9.29
2023-04-11T20:59:01.869Z,9.23
2023-04-11T21:01:30.148Z,9.15
2023-04-11T21:03:58.738Z,9.13
2023-04-11T21:06:26.448Z,9.10
2023-04-11T21:08:53.654Z,8.97
2023-04-11T21:11:21.188Z,8.86
2023-04-11T21:13:51.722Z,8.78
2023-04-11T21:16:18.959Z,8.77
2023-04-11T21:18:46.177Z,8.78
2023-04-11T21:21:13.482Z,8.74
2023-04-11T21:23:40.706Z,8.60
2023-04-11T21:26:07.934Z,8.52
2023-04-11T21:28:35.432Z,8.45
2023-04-11T21:31:03.248Z,8.36
2023-04-11T21:33:30.465Z,8.30
2023-04-11T21:35:57.948Z,8.11
2023-04-11T21:38:25.367Z,8.09
2023-04-11T21:40:53.071Z,8.03
2023-04-11T21:43:20.301Z,7.91
2023-04-11T21:45:47.480Z,7.87
2023-04-11T21:48:14.629Z,7.81
2023-04-11T21:50:41.777Z,7.73
2023-04-11T21:53:08.927Z,7.68
2023-04-11T21:55:36.266Z,7.63
2023-04-11T21:58:03.432Z,7.60
2023-04-11T22:00:30.597Z,7.63
2023-04-11T22:02:58.440Z,7.59
2023-04-11T22:05:26.096Z,7.54
2023-04-11T22:08:10.331Z,7.48
2023-04-11T22:10:46.666Z,7.41
2023-04-11T22:13:21.149Z,7.33
2023-04-11T22:15:49.284Z,7.31
2023-04-11T22:18:16.459Z,7.21
2023-04-11T22:20:45.550Z,7.19
2023-04-11T22:23:13.505Z,7.13
2023-04-11T22:25:44.451Z,7.09
2023-04-11T22:28:14.795Z,7.08
2023-04-11T22:30:41.887Z,7.08
2023-04-11T22:33:09.154Z,7.10
2023-04-11T22:35:36.839Z,7.07
2023-04-11T22:38:04.142Z,6.98
2023-04-11T22:40:31.519Z,6.90
2023-04-11T22:42:58.903Z,6.84
2023-04-11T22:45:26.142Z,6.73
2023-04-11T22:47:53.668Z,6.69
2023-04-11T22:50:21.349Z,6.70
2023-04-11T22:52:48.699Z,6.66
2023-04-11T22:55:15.990Z,6.58
2023-04-11T22:57:43.151Z,6.55
2023-04-11T23:00:11.169Z,6.49
2023-04-11T23:02:38.569Z,6.44
2023-04-11T23:05:07.966Z,6.45
2023-04-11T23:07:35.246Z,6.46
2023-04-11T23:10:02.413Z,6.43
2023-04-11T23:12:30.142Z,6.47
2023-04-11T23:14:57.593Z,6.45
2023-04-11T23:17:24.768Z,6.43
2023-04-11T23:19:52.047Z,6.37
2023-04-11T23:22:19.469Z,6.26
2023-04-11T23:24:46.943Z,6.21
2023-04-11T23:27:14.236Z,6.18
2023-04-11T23:29:41.358Z,6.16
2023-04-11T23:32:08.609Z,6.17
2023-04-11T23:34:35.696Z,6.15
2023-04-11T23:37:02.867Z,6.12
2023-04-11T23:39:30.095Z,6.12
2023-04-11T23:41:57.643Z,6.10
2023-04-11T23:44:24.859Z,6.09
2023-04-11T23:46:52.094Z,6.07
2023-04-11T23:49:19.290Z,6.04
2023-04-11T23:51:46.425Z,5.98
2023-04-11T23:54:13.777Z,5.94
2023-04-11T23:56:40.941Z,5.89
2023-04-11T23:59:08.493Z,5.85
